sensor_id;sensor_type;location;lat;lon;timestamp;pressure;altitude;pressure_sealevel;temperature;humidity
49459;BME280;35354;51.296;16.924;2023-04-01T00:00:25;97754.97;;;9.29;100.00
49459;BME280;35354;51.296;16.924;2023-04-01T00:02:50;97750.31;;;9.21;100.00
49459;BME280;35354;51.296;16.924;2023-04-01T00:05:16;97760.91;;;9.18;100.00
49459;BME280;35354;51.296;16.924;2023-04-01T00:07:42;97764.94;;;9.22;100.00
49459;BME280;35354;51.296;16.924;2023-04-01T00:10:09;97763.75;;;9.15;100.00
49459;BME280;35354;51.296;16.924;2023-04-01T00:12:35;97770.38;;;9.19;100.00
49459;BME280;35354;51.296;16.924;2023-04-01T00:15:01;97759.69;;;9.11;100.00
49459;BME280;35354;51.296;16.924;2023-04-01T00:17:27;97771.63;;;9.13;100.00
49459;BME280;35354;51.296;16.924;2023-04-01T00:19:54;97773.41;;;9.13;100.00
49459;BME280;35354;51.296;16.924;2023-04-01T00:22:20;97774.34;;;9.12;100.00
49459;BME280;35354;51.296;16.924;2023-04-01T00:24:45;97753.72;;;8.97;100.00
49459;BME280;35354;51.296;16.924;2023-04-01T00:27:10;97778.22;;;9.06;100.00
49459;BME280;35354;51.296;16.924;2023-04-01T00:29:36;97761.59;;;8.96;100.00
49459;BME280;35354;51.296;16.924;2023-04-01T00:32:01;97784.22;;;9.07;100.00
49459;BME280;35354;51.296;16.924;2023-04-01T00:34:26;97755.78;;;8.92;100.00
49459;BME280;35354;51.296;16.924;2023-04-01T00:36:52;97748.63;;;8.96;100.00
49459;BME280;35354;51.296;16.924;2023-04-01T00:39:20;97752.03;;;8.96;100.00
49459;BME280;35354;51.296;16.924;2023-04-01T00:41:46;97778.72;;;9.11;100.00
49459;BME280;35354;51.296;16.924;2023-04-01T00:44:17;97782.41;;;9.20;100.00
49459;BME280;35354;51.296;16.924;2023-04-01T00:46:43;97786.88;;;9.18;100.00
49459;BME280;35354;51.296;16.924;2023-04-01T00:49:09;97753.69;;;9.10;100.00
49459;BME280;35354;51.296;16.924;2023-04-01T00:51:34;97775.34;;;9.22;100.00
49459;BME280;35354;51.296;16.924;2023-04-01T00:54:03;97778.22;;;9.30;100.00
49459;BME280;35354;51.296;16.924;2023-04-01T00:56:34;97773.63;;;9.34;100.00
49459;BME280;35354;51.296;16.924;2023-04-01T00:59:04;97757.88;;;9.24;100.00
49459;BME280;35354;51.296;16.924;2023-04-01T01:01:34;97780.69;;;9.44;100.00
49459;BME280;35354;51.296;16.924;2023-04-01T01:04:00;97753.59;;;9.36;100.00
49459;BME280;35354;51.296;16.924;2023-04-01T01:06:46;97770.38;;;9.43;100.00
49459;BME280;35354;51.296;16.924;2023-04-01T01:09:21;97784.13;;;9.56;100.00
49459;BME280;35354;51.296;16.924;2023-04-01T01:11:55;97752.72;;;9.35;100.00
49459;BME280;35354;51.296;16.924;2023-04-01T01:27:22;97752.84;;;9.34;100.00
49459;BME280;35354;51.296;16.924;2023-04-01T01:38:00;97758.41;;;9.53;100.00
49459;BME280;35354;51.296;16.924;2023-04-01T01:40:28;97763.03;;;9.61;100.00
49459;BME280;35354;51.296;16.924;2023-04-01T01:42:59;97751.91;;;9.59;100.00
49459;BME280;35354;51.296;16.924;2023-04-01T01:45:26;97763.19;;;9.70;100.00
49459;BME280;35354;51.296;16.924;2023-04-01T01:47:53;97753.84;;;9.68;100.00
49459;BME280;35354;51.296;16.924;2023-04-01T01:50:21;97765.88;;;9.69;100.00
49459;BME280;35354;51.296;16.924;2023-04-01T01:52:47;97750.75;;;9.63;100.00
49459;BME280;35354;51.296;16.924;2023-04-01T01:55:27;97749.31;;;9.59;100.00
49459;BME280;35354;51.296;16.924;2023-04-01T01:57:54;97750.28;;;9.69;100.00
49459;BME280;35354;51.296;16.924;2023-04-01T02:00:21;97750.63;;;9.64;100.00
49459;BME280;35354;51.296;16.924;2023-04-01T02:02:47;97764.16;;;9.81;100.00
49459;BME280;35354;51.296;16.924;2023-04-01T02:05:23;97765.13;;;9.80;100.00
49459;BME280;35354;51.296;16.924;2023-04-01T02:08:00;97765.00;;;9.81;100.00
49459;BME280;35354;51.296;16.924;2023-04-01T02:10:26;97764.16;;;9.81;100.00
49459;BME280;35354;51.296;16.924;2023-04-01T02:12:56;97726.97;;;9.56;100.00
49459;BME280;35354;51.296;16.924;2023-04-01T02:15:25;97753.06;;;9.79;100.00
49459;BME280;35354;51.296;16.924;2023-04-01T02:17:53;97729.75;;;9.66;100.00
49459;BME280;35354;51.296;16.924;2023-04-01T02:20:21;97740.16;;;9.77;100.00
49459;BME280;35354;51.296;16.924;2023-04-01T02:22:53;97748.22;;;9.85;100.00
49459;BME280;35354;51.296;16.924;2023-04-01T02:25:26;97745.00;;;9.82;100.00
49459;BME280;35354;51.296;16.924;2023-04-01T02:27:53;97736.97;;;9.73;100.00
49459;BME280;35354;51.296;16.924;2023-04-01T02:30:20;97712.81;;;9.60;100.00
49459;BME280;35354;51.296;16.924;2023-04-01T02:32:46;97711.16;;;9.59;100.00
49459;BME280;35354;51.296;16.924;2023-04-01T02:35:14;97756.16;;;9.84;100.00
49459;BME280;35354;51.296;16.924;2023-04-01T02:37:44;97732.81;;;9.71;100.00
49459;BME280;35354;51.296;16.924;2023-04-01T02:40:12;97749.28;;;9.83;100.00
49459;BME280;35354;51.296;16.924;2023-04-01T02:42:38;97743.63;;;9.78;100.00
49459;BME280;35354;51.296;16.924;2023-04-01T02:45:04;97736.25;;;9.71;100.00
49459;BME280;35354;51.296;16.924;2023-04-01T02:47:30;97753.66;;;9.82;100.00
49459;BME280;35354;51.296;16.924;2023-04-01T02:49:55;97752.72;;;9.83;100.00
49459;BME280;35354;51.296;16.924;2023-04-01T02:52:27;97744.53;;;9.77;100.00
49459;BME280;35354;51.296;16.924;2023-04-01T02:54:53;97762.78;;;9.88;100.00
49459;BME280;35354;51.296;16.924;2023-04-01T02:57:19;97760.88;;;9.90;100.00
49459;BME280;35354;51.296;16.924;2023-04-01T02:59:45;97762.66;;;9.89;100.00
49459;BME280;35354;51.296;16.924;2023-04-01T03:02:10;97747.13;;;9.77;100.00
49459;BME280;35354;51.296;16.924;2023-04-01T03:04:35;97769.84;;;9.86;100.00
49459;BME280;35354;51.296;16.924;2023-04-01T03:07:01;97754.00;;;9.78;100.00
49459;BME280;35354;51.296;16.924;2023-04-01T03:09:26;97756.97;;;9.84;100.00
49459;BME280;35354;51.296;16.924;2023-04-01T03:11:52;97775.91;;;9.86;100.00
49459;BME280;35354;51.296;16.924;2023-04-01T03:14:17;97742.50;;;9.69;100.00
49459;BME280;35354;51.296;16.924;2023-04-01T03:16:42;97752.44;;;9.75;100.00
49459;BME280;35354;51.296;16.924;2023-04-01T03:19:07;97755.75;;;9.77;100.00
49459;BME280;35354;51.296;16.924;2023-04-01T03:21:33;97744.16;;;9.70;100.00
49459;BME280;35354;51.296;16.924;2023-04-01T03:23:58;97754.31;;;9.73;100.00
49459;BME280;35354;51.296;16.924;2023-04-01T03:26:24;97749.97;;;9.73;100.00
49459;BME280;35354;51.296;16.924;2023-04-01T03:28:49;97774.00;;;9.88;100.00
49459;BME280;35354;51.296;16.924;2023-04-01T03:31:15;97752.44;;;9.75;100.00
49459;BME280;35354;51.296;16.924;2023-04-01T03:33:41;97760.75;;;9.80;100.00
49459;BME280;35354;51.296;16.924;2023-04-01T03:36:07;97773.06;;;9.89;100.00
49459;BME280;35354;51.296;16.924;2023-04-01T03:38:33;97749.13;;;9.73;100.00
49459;BME280;35354;51.296;16.924;2023-04-01T03:40:59;97769.28;;;9.82;100.00
49459;BME280;35354;51.296;16.924;2023-04-01T03:43:24;97746.53;;;9.73;100.00
49459;BME280;35354;51.296;16.924;2023-04-01T03:45:51;97752.56;;;9.73;100.00
49459;BME280;35354;51.296;16.924;2023-04-01T03:48:17;97756.81;;;9.74;100.00
49459;BME280;35354;51.296;16.924;2023-04-01T03:50:43;97751.50;;;9.76;100.00
49459;BME280;35354;51.296;16.924;2023-04-01T03:53:10;97771.13;;;9.80;100.00
49459;BME280;35354;51.296;16.924;2023-04-01T03:55:36;97758.00;;;9.70;100.00
49459;BME280;35354;51.296;16.924;2023-04-01T03:58:02;97755.47;;;9.69;100.00
49459;BME280;35354;51.296;16.924;2023-04-01T04:00:28;97775.50;;;9.80;100.00
49459;BME280;35354;51.296;16.924;2023-04-01T04:02:54;97770.66;;;9.75;100.00
49459;BME280;35354;51.296;16.924;2023-04-01T04:05:21;97785.44;;;9.86;100.00
49459;BME280;35354;51.296;16.924;2023-04-01T04:07:46;97774.28;;;9.72;100.00
49459;BME280;35354;51.296;16.924;2023-04-01T04:10:11;97790.78;;;9.84;100.00
49459;BME280;35354;51.296;16.924;2023-04-01T04:12:36;97792.41;;;9.85;100.00
49459;BME280;35354;51.296;16.924;2023-04-01T04:15:02;97796.91;;;9.83;100.00
49459;BME280;35354;51.296;16.924;2023-04-01T04:17:27;97778.56;;;9.73;100.00
49459;BME280;35354;51.296;16.924;2023-04-01T04:19:53;97769.00;;;9.74;100.00
49459;BME280;35354;51.296;16.924;2023-04-01T04:22:18;97773.38;;;9.73;100.00
49459;BME280;35354;51.296;16.924;2023-04-01T04:24:43;97796.81;;;9.85;100.00
49459;BME280;35354;51.296;16.924;2023-04-01T04:27:08;97780.31;;;9.73;100.00
49459;BME280;35354;51.296;16.924;2023-04-01T04:29:34;97798.56;;;9.84;100.00
49459;BME280;35354;51.296;16.924;2023-04-01T04:31:59;97799.31;;;9.86;100.00
49459;BME280;35354;51.296;16.924;2023-04-01T04:34:25;97798.34;;;9.87;100.00
49459;BME280;35354;51.296;16.924;2023-04-01T04:36:50;97797.53;;;9.87;100.00
49459;BME280;35354;51.296;16.924;2023-04-01T04:39:15;97777.50;;;9.76;100.00
49459;BME280;35354;51.296;16.924;2023-04-01T04:41:41;97794.31;;;9.83;100.00
49459;BME280;35354;51.296;16.924;2023-04-01T04:44:07;97799.88;;;9.90;100.00
49459;BME280;35354;51.296;16.924;2023-04-01T04:46:32;97794.09;;;9.86;100.00
49459;BME280;35354;51.296;16.924;2023-04-01T04:48:57;97759.03;;;9.68;100.00
49459;BME280;35354;51.296;16.924;2023-04-01T04:51:23;97802.47;;;9.90;100.00
49459;BME280;35354;51.296;16.924;2023-04-01T04:53:49;97803.56;;;9.87;100.00
49459;BME280;35354;51.296;16.924;2023-04-01T04:56:21;97775.25;;;9.71;100.00
49459;BME280;35354;51.296;16.924;2023-04-01T04:58:47;97799.31;;;9.86;100.00
49459;BME280;35354;51.296;16.924;2023-04-01T05:01:14;97801.91;;;9.86;100.00
49459;BME280;35354;51.296;16.924;2023-04-01T05:03:41;97784.88;;;9.82;100.00
49459;BME280;35354;51.296;16.924;2023-04-01T05:06:08;97801.44;;;9.92;100.00
49459;BME280;35354;51.296;16.924;2023-04-01T05:08:33;97803.44;;;9.89;100.00
49459;BME280;35354;51.296;16.924;2023-04-01T05:10:59;97809.38;;;9.91;100.00
49459;BME280;35354;51.296;16.924;2023-04-01T05:13:25;97805.94;;;9.90;100.00
49459;BME280;35354;51.296;16.924;2023-04-01T05:15:50;97802.94;;;9.84;100.00
49459;BME280;35354;51.296;16.924;2023-04-01T05:18:16;97791.59;;;9.85;100.00
49459;BME280;35354;51.296;16.924;2023-04-01T05:20:50;97788.50;;;9.80;100.00
49459;BME280;35354;51.296;16.924;2023-04-01T05:23:15;97797.53;;;9.87;100.00
49459;BME280;35354;51.296;16.924;2023-04-01T05:25:41;97788.28;;;9.83;100.00
49459;BME280;35354;51.296;16.924;2023-04-01T05:28:06;97805.22;;;9.88;100.00
49459;BME280;35354;51.296;16.924;2023-04-01T05:30:32;97796.81;;;9.85;100.00
49459;BME280;35354;51.296;16.924;2023-04-01T05:32:57;97790.28;;;9.79;100.00
49459;BME280;35354;51.296;16.924;2023-04-01T05:35:23;97795.63;;;9.78;100.00
49459;BME280;35354;51.296;16.924;2023-04-01T05:37:48;97809.47;;;9.89;100.00
49459;BME280;35354;51.296;16.924;2023-04-01T05:40:14;97795.28;;;9.82;100.00
49459;BME280;35354;51.296;16.924;2023-04-01T05:42:39;97802.13;;;9.83;100.00
49459;BME280;35354;51.296;16.924;2023-04-01T05:45:05;97798.56;;;9.84;100.00
49459;BME280;35354;51.296;16.924;2023-04-01T05:47:31;97823.47;;;9.99;100.00
49459;BME280;35354;51.296;16.924;2023-04-01T05:49:56;97792.41;;;9.85;100.00
49459;BME280;35354;51.296;16.924;2023-04-01T05:52:21;97800.13;;;9.87;100.00
49459;BME280;35354;51.296;16.924;2023-04-01T05:54:46;97825.13;;;10.00;100.00
49459;BME280;35354;51.296;16.924;2023-04-01T05:57:12;97824.28;;;10.00;100.00
49459;BME280;35354;51.296;16.924;2023-04-01T05:59:37;97801.91;;;9.86;100.00
49459;BME280;35354;51.296;16.924;2023-04-01T06:02:03;97801.19;;;9.84;100.00
49459;BME280;35354;51.296;16.924;2023-04-01T06:04:34;97826.97;;;9.98;100.00
49459;BME280;35354;51.296;16.924;2023-04-01T06:07:00;97799.31;;;9.86;100.00
49459;BME280;35354;51.296;16.924;2023-04-01T06:09:27;97804.59;;;9.85;100.00
49459;BME280;35354;51.296;16.924;2023-04-01T06:14:58;97835.41;;;10.02;100.00
49459;BME280;35354;51.296;16.924;2023-04-01T06:20:39;97832.59;;;10.05;100.00
49459;BME280;35354;51.296;16.924;2023-04-01T06:23:21;97839.56;;;10.05;100.00
49459;BME280;35354;51.296;16.924;2023-04-01T06:31:24;97848.69;;;10.10;100.00
49459;BME280;35354;51.296;16.924;2023-04-01T06:40:16;97837.44;;;10.10;100.00
49459;BME280;35354;51.296;16.924;2023-04-01T06:45:47;97842.69;;;10.21;100.00
49459;BME280;35354;51.296;16.924;2023-04-01T06:48:28;97847.59;;;10.26;100.00
49459;BME280;35354;51.296;16.924;2023-04-01T06:54:03;97839.38;;;10.19;100.00
49459;BME280;35354;51.296;16.924;2023-04-01T06:56:30;97829.19;;;10.16;100.00
49459;BME280;35354;51.296;16.924;2023-04-01T06:59:01;97839.97;;;10.22;100.00
49459;BME280;35354;51.296;16.924;2023-04-01T07:01:49;97853.50;;;10.28;100.00
49459;BME280;35354;51.296;16.924;2023-04-01T07:04:31;97853.28;;;10.31;100.00
49459;BME280;35354;51.296;16.924;2023-04-01T07:10:13;97855.44;;;10.37;100.00
49459;BME280;35354;51.296;16.924;2023-04-01T07:12:51;97837.28;;;10.24;100.00
49459;BME280;35354;51.296;16.924;2023-04-01T07:15:26;97835.72;;;10.21;100.00
49459;BME280;35354;51.296;16.924;2023-04-01T07:17:58;97834.88;;;10.21;100.00
49459;BME280;35354;51.296;16.924;2023-04-01T07:20:30;97845.06;;;10.24;100.00
49459;BME280;35354;51.296;16.924;2023-04-01T07:22:58;97850.19;;;10.26;100.00
49459;BME280;35354;51.296;16.924;2023-04-01T07:25:37;97834.16;;;10.19;100.00
49459;BME280;35354;51.296;16.924;2023-04-01T07:28:11;97850.06;;;10.27;100.00
49459;BME280;35354;51.296;16.924;2023-04-01T07:36:30;97847.38;;;10.29;100.00
49459;BME280;35354;51.296;16.924;2023-04-01T07:47:01;97844.28;;;10.35;100.00
49459;BME280;35354;51.296;16.924;2023-04-01T07:49:57;97872.00;;;10.47;100.00
49459;BME280;35354;51.296;16.924;2023-04-01T07:52:35;97868.63;;;10.58;100.00
49459;BME280;35354;51.296;16.924;2023-04-01T07:57:53;97872.53;;;10.63;100.00
49459;BME280;35354;51.296;16.924;2023-04-01T08:03:17;97881.88;;;10.66;100.00
49459;BME280;35354;51.296;16.924;2023-04-01T08:06:00;97879.38;;;10.64;100.00
49459;BME280;35354;51.296;16.924;2023-04-01T08:08:46;97887.06;;;10.66;100.00
49459;BME280;35354;51.296;16.924;2023-04-01T08:11:34;97890.38;;;10.57;100.00
49459;BME280;35354;51.296;16.924;2023-04-01T08:14:35;97870.38;;;10.46;100.00
49459;BME280;35354;51.296;16.924;2023-04-01T08:17:03;97890.03;;;10.61;100.00
49459;BME280;35354;51.296;16.924;2023-04-01T08:22:15;97892.16;;;10.56;100.00
49459;BME280;35354;51.296;16.924;2023-04-01T08:24:45;97892.63;;;10.61;100.00
49459;BME280;35354;51.296;16.924;2023-04-01T08:27:30;97894.53;;;10.59;100.00
49459;BME280;35354;51.296;16.924;2023-04-01T08:30:18;97906.59;;;10.60;100.00
49459;BME280;35354;51.296;16.924;2023-04-01T08:33:06;97898.66;;;10.62;100.00
49459;BME280;35354;51.296;16.924;2023-04-01T08:35:54;97900.09;;;10.66;100.00
49459;BME280;35354;51.296;16.924;2023-04-01T08:38:26;97891.47;;;10.65;100.00
49459;BME280;35354;51.296;16.924;2023-04-01T08:44:02;97910.00;;;10.96;100.00
49459;BME280;35354;51.296;16.924;2023-04-01T08:52:15;97903.59;;;11.11;100.00
49459;BME280;35354;51.296;16.924;2023-04-01T08:54:46;97915.81;;;11.22;100.00
49459;BME280;35354;51.296;16.924;2023-04-01T08:57:29;97923.63;;;11.22;100.00
49459;BME280;35354;51.296;16.924;2023-04-01T09:03:23;97924.00;;;11.17;100.00
49459;BME280;35354;51.296;16.924;2023-04-01T09:22:25;97936.41;;;11.03;100.00
49459;BME280;35354;51.296;16.924;2023-04-01T09:25:20;97944.94;;;11.05;100.00
49459;BME280;35354;51.296;16.924;2023-04-01T09:27:54;97937.59;;;11.10;100.00
49459;BME280;35354;51.296;16.924;2023-04-01T09:30:48;97926.09;;;11.01;100.00
49459;BME280;35354;51.296;16.924;2023-04-01T09:36:03;97949.22;;;11.17;100.00
49459;BME280;35354;51.296;16.924;2023-04-01T09:41:29;97951.00;;;11.39;100.00
49459;BME280;35354;51.296;16.924;2023-04-01T09:52:04;97959.19;;;11.57;100.00
49459;BME280;35354;51.296;16.924;2023-04-01T10:15:11;97966.19;;;11.90;100.00
49459;BME280;35354;51.296;16.924;2023-04-01T10:26:53;97974.47;;;12.38;100.00
49459;BME280;35354;51.296;16.924;2023-04-01T10:51:04;97980.81;;;12.89;100.00
49459;BME280;35354;51.296;16.924;2023-04-01T10:53:46;97975.38;;;12.81;100.00
49459;BME280;35354;51.296;16.924;2023-04-01T11:19:32;97987.84;;;12.56;100.00
49459;BME280;35354;51.296;16.924;2023-04-01T11:33:38;98004.50;;;12.76;100.00
49459;BME280;35354;51.296;16.924;2023-04-01T11:39:44;98008.22;;;12.94;100.00
49459;BME280;35354;51.296;16.924;2023-04-01T11:50:57;97993.97;;;12.98;99.98
49459;BME280;35354;51.296;16.924;2023-04-01T12:02:16;97993.31;;;12.85;100.00
49459;BME280;35354;51.296;16.924;2023-04-01T12:10:19;98013.97;;;13.09;100.00
49459;BME280;35354;51.296;16.924;2023-04-01T12:23:52;98026.81;;;13.33;99.10
49459;BME280;35354;51.296;16.924;2023-04-01T12:29:29;98014.50;;;13.24;99.78
49459;BME280;35354;51.296;16.924;2023-04-01T12:34:51;98022.41;;;13.34;100.00
49459;BME280;35354;51.296;16.924;2023-04-01T12:37:47;98023.63;;;13.30;99.71
49459;BME280;35354;51.296;16.924;2023-04-01T12:40:28;98027.22;;;13.17;99.26
49459;BME280;35354;51.296;16.924;2023-04-01T12:52:04;98024.97;;;13.45;100.00
49459;BME280;35354;51.296;16.924;2023-04-01T13:08:22;98032.91;;;13.95;100.00
49459;BME280;35354;51.296;16.924;2023-04-01T13:19:21;98046.97;;;13.73;97.86
49459;BME280;35354;51.296;16.924;2023-04-01T13:27:42;98067.25;;;13.50;98.35
49459;BME280;35354;51.296;16.924;2023-04-01T13:30:21;98067.81;;;13.54;99.09
49459;BME280;35354;51.296;16.924;2023-04-01T13:35:41;98053.22;;;13.30;98.57
49459;BME280;35354;51.296;16.924;2023-04-01T13:38:28;98078.34;;;13.42;96.49
49459;BME280;35354;51.296;16.924;2023-04-01T13:46:08;98071.84;;;13.37;96.33
49459;BME280;35354;51.296;16.924;2023-04-01T13:57:41;98079.97;;;13.22;96.42
49459;BME280;35354;51.296;16.924;2023-04-01T14:03:17;98091.97;;;13.25;97.86
49459;BME280;35354;51.296;16.924;2023-04-01T14:08:58;98097.56;;;13.32;97.33
49459;BME280;35354;51.296;16.924;2023-04-01T14:14:36;98098.25;;;13.34;98.74
49459;BME280;35354;51.296;16.924;2023-04-01T14:41:11;98128.53;;;12.38;100.00
49459;BME280;35354;51.296;16.924;2023-04-01T14:44:24;98137.22;;;12.28;100.00
49459;BME280;35354;51.296;16.924;2023-04-01T14:47:17;98150.94;;;11.85;100.00
49459;BME280;35354;51.296;16.924;2023-04-01T14:49:51;98145.38;;;11.54;100.00
49459;BME280;35354;51.296;16.924;2023-04-01T14:52:25;98140.88;;;11.21;100.00
49459;BME280;35354;51.296;16.924;2023-04-01T14:54:52;98132.59;;;10.92;100.00
49459;BME280;35354;51.296;16.924;2023-04-01T14:57:28;98154.63;;;11.23;100.00
49459;BME280;35354;51.296;16.924;2023-04-01T15:00:14;98141.59;;;10.99;100.00
49459;BME280;35354;51.296;16.924;2023-04-01T15:02:51;98151.25;;;10.86;100.00
49459;BME280;35354;51.296;16.924;2023-04-01T15:08:32;98154.66;;;10.86;100.00
49459;BME280;35354;51.296;16.924;2023-04-01T15:20:31;98154.34;;;11.15;100.00
49459;BME280;35354;51.296;16.924;2023-04-01T15:28:32;98156.41;;;11.22;100.00
49459;BME280;35354;51.296;16.924;2023-04-01T15:31:32;98143.03;;;11.27;100.00
49459;BME280;35354;51.296;16.924;2023-04-01T15:39:56;98161.97;;;11.29;100.00
49459;BME280;35354;51.296;16.924;2023-04-01T15:53:12;98179.19;;;11.32;100.00
49459;BME280;35354;51.296;16.924;2023-04-01T16:12:15;98200.22;;;11.17;100.00
49459;BME280;35354;51.296;16.924;2023-04-01T16:22:39;98207.84;;;10.84;100.00
49459;BME280;35354;51.296;16.924;2023-04-01T16:31:06;98197.44;;;10.71;100.00
49459;BME280;35354;51.296;16.924;2023-04-01T16:34:00;98222.94;;;10.79;100.00
49459;BME280;35354;51.296;16.924;2023-04-01T16:36:30;98223.56;;;10.69;100.00
49459;BME280;35354;51.296;16.924;2023-04-01T16:47:48;98217.91;;;10.39;100.00
49459;BME280;35354;51.296;16.924;2023-04-01T16:50:28;98226.44;;;10.41;100.00
49459;BME280;35354;51.296;16.924;2023-04-01T16:53:14;98249.72;;;10.68;100.00
49459;BME280;35354;51.296;16.924;2023-04-01T16:55:55;98233.78;;;10.21;100.00
49459;BME280;35354;51.296;16.924;2023-04-01T17:01:14;98260.66;;;10.22;100.00
49459;BME280;35354;51.296;16.924;2023-04-01T17:03:46;98264.91;;;10.10;100.00
49459;BME280;35354;51.296;16.924;2023-04-01T17:09:12;98268.75;;;10.17;100.00
49459;BME280;35354;51.296;16.924;2023-04-01T17:11:44;98276.03;;;9.99;100.00
49459;BME280;35354;51.296;16.924;2023-04-01T17:14:29;98277.50;;;10.04;100.00
49459;BME280;35354;51.296;16.924;2023-04-01T17:17:17;98265.78;;;9.84;100.00
49459;BME280;35354;51.296;16.924;2023-04-01T17:19:51;98269.03;;;9.87;100.00
49459;BME280;35354;51.296;16.924;2023-04-01T17:22:44;98297.03;;;9.96;100.00
49459;BME280;35354;51.296;16.924;2023-04-01T17:28:27;98286.56;;;9.71;100.00
49459;BME280;35354;51.296;16.924;2023-04-01T17:39:57;98324.81;;;9.69;100.00
49459;BME280;35354;51.296;16.924;2023-04-01T17:42:41;98325.03;;;9.66;100.00
49459;BME280;35354;51.296;16.924;2023-04-01T17:45:10;98336.94;;;9.56;100.00
49459;BME280;35354;51.296;16.924;2023-04-01T17:53:20;98337.34;;;9.35;100.00
49459;BME280;35354;51.296;16.924;2023-04-01T18:02:00;98354.28;;;9.55;100.00
49459;BME280;35354;51.296;16.924;2023-04-01T18:10:31;98353.06;;;9.05;100.00
49459;BME280;35354;51.296;16.924;2023-04-01T18:16:02;98375.25;;;9.11;100.00
49459;BME280;35354;51.296;16.924;2023-04-01T18:24:30;98370.22;;;9.08;100.00
49459;BME280;35354;51.296;16.924;2023-04-01T18:27:03;98387.41;;;9.10;100.00
49459;BME280;35354;51.296;16.924;2023-04-01T18:44:07;98404.41;;;8.71;100.00
49459;BME280;35354;51.296;16.924;2023-04-01T18:46:48;98383.81;;;8.54;100.00
49459;BME280;35354;51.296;16.924;2023-04-01T18:49:29;98414.06;;;8.69;100.00
49459;BME280;35354;51.296;16.924;2023-04-01T18:57:45;98405.47;;;8.83;100.00
49459;BME280;35354;51.296;16.924;2023-04-01T19:00:20;98435.69;;;8.84;100.00
49459;BME280;35354;51.296;16.924;2023-04-01T19:03:01;98438.88;;;8.89;100.00
49459;BME280;35354;51.296;16.924;2023-04-01T19:05:36;98433.28;;;8.81;100.00
49459;BME280;35354;51.296;16.924;2023-04-01T19:08:30;98436.44;;;8.86;100.00
49459;BME280;35354;51.296;16.924;2023-04-01T19:14:00;98446.53;;;8.77;100.00
49459;BME280;35354;51.296;16.924;2023-04-01T19:16:44;98451.06;;;8.73;100.00
49459;BME280;35354;51.296;16.924;2023-04-01T19:25:08;98470.22;;;8.56;100.00
49459;BME280;35354;51.296;16.924;2023-04-01T19:27:43;98443.28;;;8.43;100.00
49459;BME280;35354;51.296;16.924;2023-04-01T19:30:31;98468.59;;;8.69;100.00
49459;BME280;35354;51.296;16.924;2023-04-01T19:47:00;98487.03;;;8.79;100.00
49459;BME280;35354;51.296;16.924;2023-04-01T19:57:43;98499.47;;;8.74;100.00
49459;BME280;35354;51.296;16.924;2023-04-01T20:00:28;98478.19;;;8.67;100.00
49459;BME280;35354;51.296;16.924;2023-04-01T20:05:58;98502.56;;;8.81;100.00
49459;BME280;35354;51.296;16.924;2023-04-01T20:08:57;98512.75;;;8.84;100.00
49459;BME280;35354;51.296;16.924;2023-04-01T20:19:13;98492.47;;;8.60;100.00
49459;BME280;35354;51.296;16.924;2023-04-01T20:21:46;98507.97;;;8.46;100.00
49459;BME280;35354;51.296;16.924;2023-04-01T20:24:29;98514.19;;;8.43;100.00
49459;BME280;35354;51.296;16.924;2023-04-01T20:30:01;98539.00;;;8.63;100.00
49459;BME280;35354;51.296;16.924;2023-04-01T20:35:30;98538.72;;;8.68;100.00
49459;BME280;35354;51.296;16.924;2023-04-01T20:38:31;98540.47;;;8.37;100.00
49459;BME280;35354;51.296;16.924;2023-04-01T20:41:12;98542.44;;;8.32;100.00
49459;BME280;35354;51.296;16.924;2023-04-01T20:46:35;98554.06;;;8.25;100.00
49459;BME280;35354;51.296;16.924;2023-04-01T20:54:54;98562.47;;;8.46;100.00
49459;BME280;35354;51.296;16.924;2023-04-01T20:57:31;98563.34;;;8.29;100.00
49459;BME280;35354;51.296;16.924;2023-04-01T21:00:19;98559.59;;;8.35;100.00
49459;BME280;35354;51.296;16.924;2023-04-01T21:10:47;98572.53;;;8.03;100.00
49459;BME280;35354;51.296;16.924;2023-04-01T21:16:13;98569.97;;;8.03;100.00
49459;BME280;35354;51.296;16.924;2023-04-01T21:24:39;98591.88;;;7.97;100.00
49459;BME280;35354;51.296;16.924;2023-04-01T21:41:27;98587.72;;;7.78;100.00
49459;BME280;35354;51.296;16.924;2023-04-01T21:44:25;98570.03;;;7.35;100.00
49459;BME280;35354;51.296;16.924;2023-04-01T21:49:56;98591.81;;;7.48;100.00
49459;BME280;35354;51.296;16.924;2023-04-01T21:55:25;98620.06;;;7.70;100.00
49459;BME280;35354;51.296;16.924;2023-04-01T22:06:22;98617.25;;;7.40;100.00
49459;BME280;35354;51.296;16.924;2023-04-01T22:14:37;98639.13;;;7.52;100.00
49459;BME280;35354;51.296;16.924;2023-04-01T22:17:21;98631.44;;;7.50;100.00
49459;BME280;35354;51.296;16.924;2023-04-01T22:22:55;98621.25;;;7.30;100.00
49459;BME280;35354;51.296;16.924;2023-04-01T22:25:40;98642.09;;;7.27;100.00
49459;BME280;35354;51.296;16.924;2023-04-01T22:28:21;98645.47;;;7.29;100.00
49459;BME280;35354;51.296;16.924;2023-04-01T22:30:58;98637.38;;;7.35;100.00
49459;BME280;35354;51.296;16.924;2023-04-01T22:33:34;98653.91;;;7.15;100.00
49459;BME280;35354;51.296;16.924;2023-04-01T22:38:45;98656.59;;;6.95;100.00
49459;BME280;35354;51.296;16.924;2023-04-01T22:43:56;98643.97;;;6.70;100.00
49459;BME280;35354;51.296;16.924;2023-04-01T22:46:40;98678.97;;;6.79;100.00
49459;BME280;35354;51.296;16.924;2023-04-01T22:49:17;98669.94;;;6.87;100.00
49459;BME280;35354;51.296;16.924;2023-04-01T22:52:03;98677.56;;;6.71;100.00
49459;BME280;35354;51.296;16.924;2023-04-01T22:54:40;98659.81;;;6.64;100.00
49459;BME280;35354;51.296;16.924;2023-04-01T22:59:57;98662.34;;;6.46;100.00